logo
Search for airport 
image banner adimage banner adimage banner ad
image banner ad

ULWS - NYUKSENITSA

Located in Nyuksenitsa, Russian Federation

ICAO - , IATA -

Data provided by Airmate  

General information

Coordinates: N60°24'53" E44°13'22"
Elevation is 472 feet MSL.
Magnetic variation is 16° East
View others Airports in Vologda Oblast

Operational data

Special qualification required
Current time UTC:
Current local time:
Weather at : - ( 0 km )
METAR: CYQG 171223Z AUTO 36004KT 9SM -RA FEW042 BKN120 BKN140 22/18 A2989 RMK SLP120 DENSITY ALT 1600FT
View NOTAMs / SUP AIP / TFR affecting this airport [VIEW]
Communications frequencies: [VIEW]

Runways:

Airport contact information

Address: Nyuksenitsa Russian Federation

Satellite view of ULWS